Back to Top

Language: 

My Weather Underground Personal Weather Station Historical Data with Graphs...

Delerius Weather Station Historical Data
Daily Summary for April 10, 2017 Units:  Both    English   Metric
« Previous Day
Next Day »
Daily Weekly Monthly Yearly Custom
  High: Low: Average:
Temperature: 56.8 °F /  13.8 °C 43.9 °F /  6.6 °C 49.7 °F /  9.8 °C
Dew Point: 42.3 °F /  5.7 °C 36.0 °F /  2.2 °C 39.8 °F /  4.3 °C
Humidity: 81 % 54 % 69 %
Wind Speed: 15.0 mph /  24.1 km/h - 10 mph /  16.1 km/h
Wind Gust: 29.0 mph /  46.7 km/h - -
Wind:- - WNW
Pressure: 30.33 in /  1027 hPa 30.11 in /  1019.5 hPa -
Precipitation: 0.00 in /  0 mm    
Historical Graphs
 
 
Tabular Data for April 10, 2017
Time Temperature Dew Point Pressure Wind Wind Speed Wind Gust Humidity Rainfall Rate (Hourly) solar Conditions
00:02 48.4 °F /  9.1 °C 42.2 °F /  5.7 °C 30.11 in /  1019.5 hPa WNW 10.0 mph /  16.1 km/h 19.0 mph /  30.6 km/h 79 % 0.00 in /  0 mm 0 W/m2
00:07 48.0 °F /  8.9 °C 41.5 °F /  5.3 °C 30.11 in /  1019.5 hPa WNW 10.0 mph /  16.1 km/h 19.0 mph /  30.6 km/h 78 % 0.00 in /  0 mm 0 W/m2
00:12 48.0 °F /  8.9 °C 41.5 °F /  5.3 °C 30.11 in /  1019.5 hPa WNW 10.0 mph /  16.1 km/h 18.0 mph /  29 km/h 78 % 0.00 in /  0 mm 0 W/m2
00:17 47.8 °F /  8.8 °C 41.0 °F /  5 °C 30.12 in /  1019.9 hPa NW 10.0 mph /  16.1 km/h 19.0 mph /  30.6 km/h 77 % 0.00 in /  0 mm 0 W/m2
00:22 47.7 °F /  8.7 °C 40.5 °F /  4.7 °C 30.12 in /  1019.9 hPa WNW 10.0 mph /  16.1 km/h 19.0 mph /  30.6 km/h 76 % 0.00 in /  0 mm 0 W/m2
00:27 47.5 °F /  8.6 °C 39.9 °F /  4.4 °C 30.11 in /  1019.5 hPa WNW 10.0 mph /  16.1 km/h 24.0 mph /  38.6 km/h 75 % 0.00 in /  0 mm 0 W/m2
00:32 47.5 °F /  8.6 °C 39.6 °F /  4.2 °C 30.12 in /  1019.9 hPa WNW 11.0 mph /  17.7 km/h 24.0 mph /  38.6 km/h 74 % 0.00 in /  0 mm 0 W/m2
00:37 47.3 °F /  8.5 °C 39.1 °F /  3.9 °C 30.12 in /  1019.9 hPa WNW 10.0 mph /  16.1 km/h 22.0 mph /  35.4 km/h 73 % 0.00 in /  0 mm 0 W/m2
00:42 47.1 °F /  8.4 °C 39.3 °F /  4.1 °C 30.12 in /  1019.9 hPa WNW 10.0 mph /  16.1 km/h 19.0 mph /  30.6 km/h 74 % 0.00 in /  0 mm 0 W/m2
00:47 47.1 °F /  8.4 °C 39.3 °F /  4.1 °C 30.12 in /  1019.9 hPa WNW 11.0 mph /  17.7 km/h 22.0 mph /  35.4 km/h 74 % 0.00 in /  0 mm 0 W/m2
00:52 46.9 °F /  8.3 °C 39.1 °F /  3.9 °C 30.12 in /  1019.9 hPa WNW 12.0 mph /  19.3 km/h 22.0 mph /  35.4 km/h 74 % 0.00 in /  0 mm 0 W/m2
00:57 46.8 °F /  8.2 °C 38.9 °F /  3.8 °C 30.12 in /  1019.9 hPa WNW 11.0 mph /  17.7 km/h 20.0 mph /  32.2 km/h 74 % 0.00 in /  0 mm 0 W/m2
01:02 46.6 °F /  8.1 °C 39.1 °F /  3.9 °C 30.12 in /  1019.9 hPa WNW 10.0 mph /  16.1 km/h 18.0 mph /  29 km/h 75 % 0.00 in /  0 mm 0 W/m2
01:07 46.6 °F /  8.1 °C 39.1 °F /  3.9 °C 30.13 in /  1020.2 hPa NW 9.0 mph /  14.5 km/h 16.0 mph /  25.7 km/h 75 % 0.00 in /  0 mm 0 W/m2
01:08 46.6 °F /  8.1 °C 39.4 °F /  4.1 °C 30.13 in /  1020.2 hPa NW 9.0 mph /  14.5 km/h 16.0 mph /  25.7 km/h 76 % 0.00 in /  0 mm 0 W/m2
01:13 46.2 °F /  7.9 °C 39.4 °F /  4.1 °C 30.12 in /  1019.9 hPa WNW 9.0 mph /  14.5 km/h 21.0 mph /  33.8 km/h 77 % 0.00 in /  0 mm 0 W/m2
01:18 46.0 °F /  7.8 °C 39.6 °F /  4.2 °C 30.12 in /  1019.9 hPa WNW 11.0 mph /  17.7 km/h 25.0 mph /  40.2 km/h 78 % 0.00 in /  0 mm 0 W/m2
01:23 45.9 °F /  7.7 °C 39.4 °F /  4.1 °C 30.13 in /  1020.2 hPa WNW 12.0 mph /  19.3 km/h 25.0 mph /  40.2 km/h 78 % 0.00 in /  0 mm 0 W/m2
01:28 45.7 °F /  7.6 °C 39.5 °F /  4.2 °C 30.13 in /  1020.2 hPa WNW 10.0 mph /  16.1 km/h 24.0 mph /  38.6 km/h 79 % 0.00 in /  0 mm 0 W/m2
01:33 45.5 °F /  7.5 °C 39.0 °F /  3.9 °C 30.13 in /  1020.2 hPa WNW 10.0 mph /  16.1 km/h 19.0 mph /  30.6 km/h 78 % 0.00 in /  0 mm 0 W/m2
01:38 45.1 °F /  7.3 °C 38.7 °F /  3.7 °C 30.13 in /  1020.2 hPa WNW 11.0 mph /  17.7 km/h 21.0 mph /  33.8 km/h 78 % 0.00 in /  0 mm 0 W/m2
01:43 45.1 °F /  7.3 °C 38.7 °F /  3.7 °C 30.13 in /  1020.2 hPa WNW 10.0 mph /  16.1 km/h 21.0 mph /  33.8 km/h 78 % 0.00 in /  0 mm 0 W/m2
01:48 45.0 °F /  7.2 °C 38.2 °F /  3.4 °C 30.13 in /  1020.2 hPa WNW 10.0 mph /  16.1 km/h 20.0 mph /  32.2 km/h 77 % 0.00 in /  0 mm 0 W/m2
01:53 44.8 °F /  7.1 °C 37.7 °F /  3.2 °C 30.13 in /  1020.2 hPa WNW 10.0 mph /  16.1 km/h 20.0 mph /  32.2 km/h 76 % 0.00 in /  0 mm 0 W/m2
01:58 44.8 °F /  7.1 °C 37.7 °F /  3.2 °C 30.13 in /  1020.2 hPa WNW 10.0 mph /  16.1 km/h 20.0 mph /  32.2 km/h 76 % 0.00 in /  0 mm 0 W/m2
02:03 44.8 °F /  7.1 °C 38.0 °F /  3.3 °C 30.13 in /  1020.2 hPa WNW 11.0 mph /  17.7 km/h 20.0 mph /  32.2 km/h 77 % 0.00 in /  0 mm 0 W/m2
02:08 44.8 °F /  7.1 °C 38.3 °F /  3.5 °C 30.13 in /  1020.2 hPa WNW 11.0 mph /  17.7 km/h 22.0 mph /  35.4 km/h 78 % 0.00 in /  0 mm 0 W/m2
02:13 44.6 °F /  7 °C 38.2 °F /  3.4 °C 30.13 in /  1020.2 hPa WNW 11.0 mph /  17.7 km/h 22.0 mph /  35.4 km/h 78 % 0.00 in /  0 mm 0 W/m2
02:18 44.4 °F /  6.9 °C 38.3 °F /  3.5 °C 30.13 in /  1020.2 hPa NW 9.0 mph /  14.5 km/h 21.0 mph /  33.8 km/h 79 % 0.00 in /  0 mm 0 W/m2
02:23 44.2 °F /  6.8 °C 37.8 °F /  3.2 °C 30.14 in /  1020.5 hPa NW 9.0 mph /  14.5 km/h 21.0 mph /  33.8 km/h 78 % 0.00 in /  0 mm 0 W/m2
02:28 44.2 °F /  6.8 °C 37.5 °F /  3.1 °C 30.14 in /  1020.5 hPa NW 9.0 mph /  14.5 km/h 16.0 mph /  25.7 km/h 77 % 0.00 in /  0 mm 0 W/m2
02:34 44.1 °F /  6.7 °C 36.6 °F /  2.6 °C 30.13 in /  1020.2 hPa NW 9.0 mph /  14.5 km/h 18.0 mph /  29 km/h 75 % 0.00 in /  0 mm 0 W/m2
02:39 44.1 °F /  6.7 °C 36.3 °F /  2.4 °C 30.14 in /  1020.5 hPa NW 11.0 mph /  17.7 km/h 19.0 mph /  30.6 km/h 74 % 0.00 in /  0 mm 0 W/m2
02:44 44.1 °F /  6.7 °C 36.3 °F /  2.4 °C 30.15 in /  1020.9 hPa NW 11.0 mph /  17.7 km/h 19.0 mph /  30.6 km/h 74 % 0.00 in /  0 mm 0 W/m2
02:49 44.1 °F /  6.7 °C 36.3 °F /  2.4 °C 30.14 in /  1020.5 hPa NW 10.0 mph /  16.1 km/h 18.0 mph /  29 km/h 74 % 0.00 in /  0 mm 0 W/m2
02:54 44.1 °F /  6.7 °C 36.0 °F /  2.2 °C 30.14 in /  1020.5 hPa WNW 11.0 mph /  17.7 km/h 22.0 mph /  35.4 km/h 73 % 0.00 in /  0 mm 0 W/m2
02:59 44.1 °F /  6.7 °C 36.3 °F /  2.4 °C 30.14 in /  1020.5 hPa WNW 12.0 mph /  19.3 km/h 22.0 mph /  35.4 km/h 74 % 0.00 in /  0 mm 0 W/m2
03:04 44.1 °F /  6.7 °C 36.3 °F /  2.4 °C 30.15 in /  1020.9 hPa WNW 12.0 mph /  19.3 km/h 28.0 mph /  45.1 km/h 74 % 0.00 in /  0 mm 0 W/m2
03:09 44.1 °F /  6.7 °C 36.3 °F /  2.4 °C 30.16 in /  1021.2 hPa WNW 10.0 mph /  16.1 km/h 28.0 mph /  45.1 km/h 74 % 0.00 in /  0 mm 0 W/m2
03:14 44.1 °F /  6.7 °C 36.6 °F /  2.6 °C 30.16 in /  1021.2 hPa NW 8.0 mph /  12.9 km/h 18.0 mph /  29 km/h 75 % 0.00 in /  0 mm 0 W/m2
03:19 43.9 °F /  6.6 °C 36.5 °F /  2.5 °C 30.16 in /  1021.2 hPa WNW 8.0 mph /  12.9 km/h 13.0 mph /  20.9 km/h 75 % 0.00 in /  0 mm 0 W/m2
03:24 43.9 °F /  6.6 °C 36.8 °F /  2.7 °C 30.17 in /  1021.6 hPa West 9.0 mph /  14.5 km/h 16.0 mph /  25.7 km/h 76 % 0.00 in /  0 mm 0 W/m2
03:29 43.9 °F /  6.6 °C 36.8 °F /  2.7 °C 30.17 in /  1021.6 hPa West 8.0 mph /  12.9 km/h 16.0 mph /  25.7 km/h 76 % 0.00 in /  0 mm 0 W/m2
03:34 43.9 °F /  6.6 °C 37.1 °F /  2.8 °C 30.17 in /  1021.6 hPa WNW 7.0 mph /  11.3 km/h 12.0 mph /  19.3 km/h 77 % 0.00 in /  0 mm 0 W/m2
03:39 43.9 °F /  6.6 °C 37.1 °F /  2.8 °C 30.17 in /  1021.6 hPa WNW 6.0 mph /  9.7 km/h 12.0 mph /  19.3 km/h 77 % 0.00 in /  0 mm 0 W/m2
03:44 43.9 °F /  6.6 °C 37.1 °F /  2.8 °C 30.17 in /  1021.6 hPa WNW 6.0 mph /  9.7 km/h 11.0 mph /  17.7 km/h 77 % 0.00 in /  0 mm 0 W/m2
03:49 43.9 °F /  6.6 °C 37.5 °F /  3.1 °C 30.17 in /  1021.6 hPa WNW 5.0 mph /  8 km/h 11.0 mph /  17.7 km/h 78 % 0.00 in /  0 mm 0 W/m2
03:54 43.9 °F /  6.6 °C 37.5 °F /  3.1 °C 30.17 in /  1021.6 hPa WNW 4.0 mph /  6.4 km/h 12.0 mph /  19.3 km/h 78 % 0.00 in /  0 mm 0 W/m2
03:59 43.9 °F /  6.6 °C 37.5 °F /  3.1 °C 30.17 in /  1021.6 hPa NW 5.0 mph /  8 km/h 13.0 mph /  20.9 km/h 78 % 0.00 in /  0 mm 0 W/m2
04:04 43.9 °F /  6.6 °C 37.8 °F /  3.2 °C 30.17 in /  1021.6 hPa WNW 6.0 mph /  9.7 km/h 13.0 mph /  20.9 km/h 79 % 0.00 in /  0 mm 0 W/m2
04:09 44.1 °F /  6.7 °C 38.0 °F /  3.3 °C 30.17 in /  1021.6 hPa WNW 7.0 mph /  11.3 km/h 11.0 mph /  17.7 km/h 79 % 0.00 in /  0 mm 0 W/m2
04:14 44.1 °F /  6.7 °C 38.0 °F /  3.3 °C 30.17 in /  1021.6 hPa WNW 6.0 mph /  9.7 km/h 10.0 mph /  16.1 km/h 79 % 0.00 in /  0 mm 0 W/m2
04:19 44.2 °F /  6.8 °C 38.5 °F /  3.6 °C 30.18 in /  1021.9 hPa WNW 6.0 mph /  9.7 km/h 9.0 mph /  14.5 km/h 80 % 0.00 in /  0 mm 0 W/m2
04:24 44.2 °F /  6.8 °C 38.5 °F /  3.6 °C 30.17 in /  1021.6 hPa WNW 6.0 mph /  9.7 km/h 12.0 mph /  19.3 km/h 80 % 0.00 in /  0 mm 0 W/m2
04:29 44.4 °F /  6.9 °C 38.6 °F /  3.7 °C 30.18 in /  1021.9 hPa WNW 7.0 mph /  11.3 km/h 12.0 mph /  19.3 km/h 80 % 0.00 in /  0 mm 0 W/m2
04:34 44.6 °F /  7 °C 39.1 °F /  3.9 °C 30.18 in /  1021.9 hPa WNW 8.0 mph /  12.9 km/h 14.0 mph /  22.5 km/h 81 % 0.00 in /  0 mm 0 W/m2
04:39 44.8 °F /  7.1 °C 39.3 °F /  4.1 °C 30.18 in /  1021.9 hPa WNW 8.0 mph /  12.9 km/h 14.0 mph /  22.5 km/h 81 % 0.00 in /  0 mm 0 W/m2
04:44 44.8 °F /  7.1 °C 39.3 °F /  4.1 °C 30.18 in /  1021.9 hPa WNW 7.0 mph /  11.3 km/h 11.0 mph /  17.7 km/h 81 % 0.00 in /  0 mm 0 W/m2
04:49 44.8 °F /  7.1 °C 39.3 °F /  4.1 °C 30.18 in /  1021.9 hPa West 7.0 mph /  11.3 km/h 15.0 mph /  24.1 km/h 81 % 0.00 in /  0 mm 0 W/m2
04:54 45.0 °F /  7.2 °C 39.5 °F /  4.2 °C 30.18 in /  1021.9 hPa West 7.0 mph /  11.3 km/h 15.0 mph /  24.1 km/h 81 % 0.00 in /  0 mm 0 W/m2
04:59 45.0 °F /  7.2 °C 39.5 °F /  4.2 °C 30.18 in /  1021.9 hPa West 8.0 mph /  12.9 km/h 13.0 mph /  20.9 km/h 81 % 0.00 in /  0 mm 0 W/m2
05:04 45.1 °F /  7.3 °C 39.3 °F /  4.1 °C 30.18 in /  1021.9 hPa West 9.0 mph /  14.5 km/h 14.0 mph /  22.5 km/h 80 % 0.00 in /  0 mm 0 W/m2
05:09 45.1 °F /  7.3 °C 39.7 °F /  4.3 °C 30.18 in /  1021.9 hPa West 9.0 mph /  14.5 km/h 16.0 mph /  25.7 km/h 81 % 0.00 in /  0 mm 0 W/m2
05:14 45.3 °F /  7.4 °C 39.5 °F /  4.2 °C 30.18 in /  1021.9 hPa WNW 9.0 mph /  14.5 km/h 16.0 mph /  25.7 km/h 80 % 0.00 in /  0 mm 0 W/m2
05:19 45.3 °F /  7.4 °C 39.5 °F /  4.2 °C 30.18 in /  1021.9 hPa WNW 8.0 mph /  12.9 km/h 13.0 mph /  20.9 km/h 80 % 0.00 in /  0 mm 0 W/m2
05:24 45.3 °F /  7.4 °C 39.5 °F /  4.2 °C 30.18 in /  1021.9 hPa WNW 7.0 mph /  11.3 km/h 11.0 mph /  17.7 km/h 80 % 0.00 in /  0 mm 0 W/m2
05:30 45.3 °F /  7.4 °C 39.5 °F /  4.2 °C 30.18 in /  1021.9 hPa WNW 7.0 mph /  11.3 km/h 14.0 mph /  22.5 km/h 80 % 0.00 in /  0 mm 0 W/m2
05:35 45.3 °F /  7.4 °C 39.5 °F /  4.2 °C 30.19 in /  1022.2 hPa WNW 7.0 mph /  11.3 km/h 14.0 mph /  22.5 km/h 80 % 0.00 in /  0 mm 0 W/m2
05:40 45.3 °F /  7.4 °C 39.5 °F /  4.2 °C 30.19 in /  1022.2 hPa WNW 7.0 mph /  11.3 km/h 14.0 mph /  22.5 km/h 80 % 0.00 in /  0 mm 0 W/m2
05:45 45.3 °F /  7.4 °C 39.5 °F /  4.2 °C 30.19 in /  1022.2 hPa WNW 7.0 mph /  11.3 km/h 14.0 mph /  22.5 km/h 80 % 0.00 in /  0 mm 0 W/m2
05:50 45.5 °F /  7.5 °C 39.7 °F /  4.3 °C 30.19 in /  1022.2 hPa WNW 8.0 mph /  12.9 km/h 15.0 mph /  24.1 km/h 80 % 0.00 in /  0 mm 0 W/m2
05:55 45.5 °F /  7.5 °C 39.7 °F /  4.3 °C 30.19 in /  1022.2 hPa WNW 10.0 mph /  16.1 km/h 15.0 mph /  24.1 km/h 80 % 0.00 in /  0 mm 0 W/m2
06:00 45.5 °F /  7.5 °C 39.7 °F /  4.3 °C 30.19 in /  1022.2 hPa WNW 12.0 mph /  19.3 km/h 23.0 mph /  37 km/h 80 % 0.00 in /  0 mm 0 W/m2
06:05 45.7 °F /  7.6 °C 40.2 °F /  4.6 °C 30.19 in /  1022.2 hPa WNW 11.0 mph /  17.7 km/h 23.0 mph /  37 km/h 81 % 0.00 in /  0 mm 0 W/m2
06:10 45.5 °F /  7.5 °C 40.0 °F /  4.4 °C 30.19 in /  1022.2 hPa WNW 10.0 mph /  16.1 km/h 20.0 mph /  32.2 km/h 81 % 0.00 in /  0 mm 0 W/m2
06:15 45.3 °F /  7.4 °C 39.8 °F /  4.3 °C 30.19 in /  1022.2 hPa WNW 11.0 mph /  17.7 km/h 21.0 mph /  33.8 km/h 81 % 0.00 in /  0 mm 5 W/m2
06:20 45.3 °F /  7.4 °C 39.5 °F /  4.2 °C 30.20 in /  1022.6 hPa WNW 11.0 mph /  17.7 km/h 21.0 mph /  33.8 km/h 80 % 0.00 in /  0 mm 7 W/m2
06:25 45.1 °F /  7.3 °C 39.3 °F /  4.1 °C 30.20 in /  1022.6 hPa WNW 10.0 mph /  16.1 km/h 19.0 mph /  30.6 km/h 80 % 0.00 in /  0 mm 7 W/m2
06:30 45.0 °F /  7.2 °C 39.2 °F /  4 °C 30.20 in /  1022.6 hPa WNW 9.0 mph /  14.5 km/h 16.0 mph /  25.7 km/h 80 % 0.00 in /  0 mm 12 W/m2
06:35 44.8 °F /  7.1 °C 39.0 °F /  3.9 °C 30.20 in /  1022.6 hPa WNW 9.0 mph /  14.5 km/h 16.0 mph /  25.7 km/h 80 % 0.00 in /  0 mm 14 W/m2
06:40 44.8 °F /  7.1 °C 39.0 °F /  3.9 °C 30.20 in /  1022.6 hPa WNW 10.0 mph /  16.1 km/h 21.0 mph /  33.8 km/h 80 % 0.00 in /  0 mm 14 W/m2
06:45 44.6 °F /  7 °C 39.1 °F /  3.9 °C 30.19 in /  1022.2 hPa WNW 11.0 mph /  17.7 km/h 21.0 mph /  33.8 km/h 81 % 0.00 in /  0 mm 14 W/m2
06:50 44.6 °F /  7 °C 38.8 °F /  3.8 °C 30.19 in /  1022.2 hPa WNW 13.0 mph /  20.9 km/h 21.0 mph /  33.8 km/h 80 % 0.00 in /  0 mm 14 W/m2
06:55 44.6 °F /  7 °C 38.8 °F /  3.8 °C 30.19 in /  1022.2 hPa WNW 13.0 mph /  20.9 km/h 22.0 mph /  35.4 km/h 80 % 0.00 in /  0 mm 16 W/m2
07:00 44.4 °F /  6.9 °C 38.6 °F /  3.7 °C 30.20 in /  1022.6 hPa WNW 10.0 mph /  16.1 km/h 22.0 mph /  35.4 km/h 80 % 0.00 in /  0 mm 19 W/m2
07:05 44.4 °F /  6.9 °C 38.6 °F /  3.7 °C 30.20 in /  1022.6 hPa WNW 8.0 mph /  12.9 km/h 19.0 mph /  30.6 km/h 80 % 0.00 in /  0 mm 23 W/m2
07:10 44.4 °F /  6.9 °C 39.0 °F /  3.9 °C 30.20 in /  1022.6 hPa WNW 9.0 mph /  14.5 km/h 19.0 mph /  30.6 km/h 81 % 0.00 in /  0 mm 30 W/m2
07:15 44.6 °F /  7 °C 39.1 °F /  3.9 °C 30.20 in /  1022.6 hPa WNW 10.0 mph /  16.1 km/h 19.0 mph /  30.6 km/h 81 % 0.00 in /  0 mm 26 W/m2
07:20 44.6 °F /  7 °C 39.1 °F /  3.9 °C 30.20 in /  1022.6 hPa WNW 11.0 mph /  17.7 km/h 19.0 mph /  30.6 km/h 81 % 0.00 in /  0 mm 26 W/m2
07:25 44.8 °F /  7.1 °C 39.3 °F /  4.1 °C 30.21 in /  1022.9 hPa WNW 12.0 mph /  19.3 km/h 22.0 mph /  35.4 km/h 81 % 0.00 in /  0 mm 30 W/m2
07:30 44.8 °F /  7.1 °C 39.3 °F /  4.1 °C 30.21 in /  1022.9 hPa WNW 13.0 mph /  20.9 km/h 23.0 mph /  37 km/h 81 % 0.00 in /  0 mm 32 W/m2
07:35 45.0 °F /  7.2 °C 39.5 °F /  4.2 °C 30.21 in /  1022.9 hPa WNW 12.0 mph /  19.3 km/h 23.0 mph /  37 km/h 81 % 0.00 in /  0 mm 37 W/m2
07:40 45.1 °F /  7.3 °C 39.3 °F /  4.1 °C 30.21 in /  1022.9 hPa WNW 12.0 mph /  19.3 km/h 26.0 mph /  41.8 km/h 80 % 0.00 in /  0 mm 146 W/m2
07:46 45.5 °F /  7.5 °C 39.7 °F /  4.3 °C 30.21 in /  1022.9 hPa WNW 12.0 mph /  19.3 km/h 26.0 mph /  41.8 km/h 80 % 0.00 in /  0 mm 185 W/m2
07:51 45.7 °F /  7.6 °C 39.5 °F /  4.2 °C 30.21 in /  1022.9 hPa WNW 12.0 mph /  19.3 km/h 21.0 mph /  33.8 km/h 79 % 0.00 in /  0 mm 95 W/m2
07:56 45.9 °F /  7.7 °C 39.7 °F /  4.3 °C 30.21 in /  1022.9 hPa WNW 12.0 mph /  19.3 km/h 22.0 mph /  35.4 km/h 79 % 0.00 in /  0 mm 186 W/m2
08:01 46.0 °F /  7.8 °C 39.9 °F /  4.4 °C 30.21 in /  1022.9 hPa WNW 12.0 mph /  19.3 km/h 22.0 mph /  35.4 km/h 79 % 0.00 in /  0 mm 223 W/m2
08:06 46.6 °F /  8.1 °C 40.1 °F /  4.5 °C 30.22 in /  1023.2 hPa WNW 11.0 mph /  17.7 km/h 19.0 mph /  30.6 km/h 78 % 0.00 in /  0 mm 241 W/m2
08:11 46.9 °F /  8.3 °C 40.4 °F /  4.7 °C 30.21 in /  1022.9 hPa WNW 10.0 mph /  16.1 km/h 20.0 mph /  32.2 km/h 78 % 0.00 in /  0 mm 253 W/m2
08:16 47.5 °F /  8.6 °C 40.6 °F /  4.8 °C 30.22 in /  1023.2 hPa WNW 10.0 mph /  16.1 km/h 20.0 mph /  32.2 km/h 77 % 0.00 in /  0 mm 271 W/m2
08:21 47.8 °F /  8.8 °C 40.6 °F /  4.8 °C 30.22 in /  1023.2 hPa WNW 11.0 mph /  17.7 km/h 24.0 mph /  38.6 km/h 76 % 0.00 in /  0 mm 285 W/m2
08:26 48.0 °F /  8.9 °C 40.5 °F /  4.7 °C 30.21 in /  1022.9 hPa WNW 12.0 mph /  19.3 km/h 24.0 mph /  38.6 km/h 75 % 0.00 in /  0 mm 301 W/m2
08:31 48.2 °F /  9 °C 40.3 °F /  4.6 °C 30.22 in /  1023.2 hPa WNW 14.0 mph /  22.5 km/h 25.0 mph /  40.2 km/h 74 % 0.00 in /  0 mm 318 W/m2
08:36 48.4 °F /  9.1 °C 40.5 °F /  4.7 °C 30.22 in /  1023.2 hPa WNW 12.0 mph /  19.3 km/h 25.0 mph /  40.2 km/h 74 % 0.00 in /  0 mm 330 W/m2
08:41 48.6 °F /  9.2 °C 40.6 °F /  4.8 °C 30.22 in /  1023.2 hPa WNW 12.0 mph /  19.3 km/h 24.0 mph /  38.6 km/h 74 % 0.00 in /  0 mm 343 W/m2
08:46 48.9 °F /  9.4 °C 40.6 °F /  4.8 °C 30.22 in /  1023.2 hPa WNW 14.0 mph /  22.5 km/h 24.0 mph /  38.6 km/h 73 % 0.00 in /  0 mm 359 W/m2
08:51 48.9 °F /  9.4 °C 40.3 °F /  4.6 °C 30.22 in /  1023.2 hPa WNW 14.0 mph /  22.5 km/h 24.0 mph /  38.6 km/h 72 % 0.00 in /  0 mm 373 W/m2
08:56 49.3 °F /  9.6 °C 40.3 °F /  4.6 °C 30.23 in /  1023.6 hPa WNW 14.0 mph /  22.5 km/h 23.0 mph /  37 km/h 71 % 0.00 in /  0 mm 385 W/m2
09:00 49.5 °F /  9.7 °C 40.4 °F /  4.7 °C 30.23 in /  1023.6 hPa WNW 13.0 mph /  20.9 km/h 23.0 mph /  37 km/h 71 % 0.00 in /  0 mm 397 W/m2
09:05 49.5 °F /  9.7 °C 40.1 °F /  4.5 °C 30.23 in /  1023.6 hPa WNW 14.0 mph /  22.5 km/h 25.0 mph /  40.2 km/h 70 % 0.00 in /  0 mm 413 W/m2
09:10 49.6 °F /  9.8 °C 40.3 °F /  4.6 °C 30.23 in /  1023.6 hPa WNW 14.0 mph /  22.5 km/h 25.0 mph /  40.2 km/h 70 % 0.00 in /  0 mm 424 W/m2
09:15 49.6 °F /  9.8 °C 39.9 °F /  4.4 °C 30.23 in /  1023.6 hPa WNW 15.0 mph /  24.1 km/h 27.0 mph /  43.5 km/h 69 % 0.00 in /  0 mm 436 W/m2
09:20 50.0 °F /  10 °C 39.8 °F /  4.3 °C 30.23 in /  1023.6 hPa WNW 15.0 mph /  24.1 km/h 27.0 mph /  43.5 km/h 68 % 0.00 in /  0 mm 452 W/m2
09:25 50.2 °F /  10.1 °C 39.6 °F /  4.2 °C 30.24 in /  1023.9 hPa WNW 14.0 mph /  22.5 km/h 29.0 mph /  46.7 km/h 67 % 0.00 in /  0 mm 466 W/m2
09:30 50.5 °F /  10.3 °C 40.0 °F /  4.4 °C 30.24 in /  1023.9 hPa WNW 14.0 mph /  22.5 km/h 29.0 mph /  46.7 km/h 67 % 0.00 in /  0 mm 478 W/m2
09:35 50.7 °F /  10.4 °C 39.8 °F /  4.3 °C 30.24 in /  1023.9 hPa WNW 13.0 mph /  20.9 km/h 25.0 mph /  40.2 km/h 66 % 0.00 in /  0 mm 492 W/m2
09:40 51.1 °F /  10.6 °C 40.1 °F /  4.5 °C 30.24 in /  1023.9 hPa WNW 12.0 mph /  19.3 km/h 23.0 mph /  37 km/h 66 % 0.00 in /  0 mm 508 W/m2
09:45 51.4 °F /  10.8 °C 40.1 °F /  4.5 °C 30.24 in /  1023.9 hPa NW 12.0 mph /  19.3 km/h 23.0 mph /  37 km/h 65 % 0.00 in /  0 mm 508 W/m2
09:50 51.4 °F /  10.8 °C 39.7 °F /  4.3 °C 30.24 in /  1023.9 hPa NW 14.0 mph /  22.5 km/h 23.0 mph /  37 km/h 64 % 0.00 in /  0 mm 545 W/m2
09:55 51.8 °F /  11 °C 39.6 °F /  4.2 °C 30.24 in /  1023.9 hPa NW 14.0 mph /  22.5 km/h 23.0 mph /  37 km/h 63 % 0.00 in /  0 mm 548 W/m2
10:00 52.2 °F /  11.2 °C 39.9 °F /  4.4 °C 30.24 in /  1023.9 hPa WNW 12.0 mph /  19.3 km/h 22.0 mph /  35.4 km/h 63 % 0.00 in /  0 mm 547 W/m2
10:05 52.3 °F /  11.3 °C 39.7 °F /  4.3 °C 30.24 in /  1023.9 hPa NW 13.0 mph /  20.9 km/h 22.0 mph /  35.4 km/h 62 % 0.00 in /  0 mm 529 W/m2
10:10 52.9 °F /  11.6 °C 40.2 °F /  4.6 °C 30.24 in /  1023.9 hPa NW 11.0 mph /  17.7 km/h 22.0 mph /  35.4 km/h 62 % 0.00 in /  0 mm 540 W/m2
10:15 53.2 °F /  11.8 °C 39.7 °F /  4.3 °C 30.24 in /  1023.9 hPa WNW 11.0 mph /  17.7 km/h 22.0 mph /  35.4 km/h 60 % 0.00 in /  0 mm 533 W/m2
10:20 53.2 °F /  11.8 °C 39.7 °F /  4.3 °C 30.25 in /  1024.3 hPa WNW 13.0 mph /  20.9 km/h 25.0 mph /  40.2 km/h 60 % 0.00 in /  0 mm 520 W/m2
10:25 53.2 °F /  11.8 °C 39.7 °F /  4.3 °C 30.25 in /  1024.3 hPa WNW 13.0 mph /  20.9 km/h 25.0 mph /  40.2 km/h 60 % 0.00 in /  0 mm 599 W/m2
10:30 53.4 °F /  11.9 °C 40.7 °F /  4.8 °C 30.25 in /  1024.3 hPa WNW 13.0 mph /  20.9 km/h 22.0 mph /  35.4 km/h 62 % 0.00 in /  0 mm 603 W/m2
10:35 53.8 °F /  12.1 °C 40.6 °F /  4.8 °C 30.25 in /  1024.3 hPa WNW 13.0 mph /  20.9 km/h 26.0 mph /  41.8 km/h 61 % 0.00 in /  0 mm 601 W/m2
10:40 53.6 °F /  12 °C 40.5 °F /  4.7 °C 30.25 in /  1024.3 hPa WNW 14.0 mph /  22.5 km/h 26.0 mph /  41.8 km/h 61 % 0.00 in /  0 mm 401 W/m2
10:45 53.2 °F /  11.8 °C 40.5 °F /  4.7 °C 30.26 in /  1024.6 hPa WNW 15.0 mph /  24.1 km/h 26.0 mph /  41.8 km/h 62 % 0.00 in /  0 mm 353 W/m2
10:50 53.1 °F /  11.7 °C 40.4 °F /  4.7 °C 30.26 in /  1024.6 hPa WNW 14.0 mph /  22.5 km/h 26.0 mph /  41.8 km/h 62 % 0.00 in /  0 mm 612 W/m2
10:55 53.1 °F /  11.7 °C 40.4 °F /  4.7 °C 30.25 in /  1024.3 hPa WNW 12.0 mph /  19.3 km/h 21.0 mph /  33.8 km/h 62 % 0.00 in /  0 mm 359 W/m2
11:00 53.1 °F /  11.7 °C 40.8 °F /  4.9 °C 30.26 in /  1024.6 hPa WNW 11.0 mph /  17.7 km/h 22.0 mph /  35.4 km/h 63 % 0.00 in /  0 mm 427 W/m2
11:06 52.9 °F /  11.6 °C 41.0 °F /  5 °C 30.26 in /  1024.6 hPa WNW 12.0 mph /  19.3 km/h 22.0 mph /  35.4 km/h 64 % 0.00 in /  0 mm 427 W/m2
11:11 53.2 °F /  11.8 °C 41.4 °F /  5.2 °C 30.26 in /  1024.6 hPa WNW 12.0 mph /  19.3 km/h 22.0 mph /  35.4 km/h 64 % 0.00 in /  0 mm 427 W/m2
11:16 54.1 °F /  12.3 °C 41.8 °F /  5.4 °C 30.26 in /  1024.6 hPa NW 11.0 mph /  17.7 km/h 18.0 mph /  29 km/h 63 % 0.00 in /  0 mm 868 W/m2
11:21 54.7 °F /  12.6 °C 41.9 °F /  5.5 °C 30.26 in /  1024.6 hPa WNW 11.0 mph /  17.7 km/h 22.0 mph /  35.4 km/h 62 % 0.00 in /  0 mm 881 W/m2
11:26 54.7 °F /  12.6 °C 41.5 °F /  5.3 °C 30.26 in /  1024.6 hPa WNW 13.0 mph /  20.9 km/h 22.0 mph /  35.4 km/h 61 % 0.00 in /  0 mm 301 W/m2
11:31 54.1 °F /  12.3 °C 41.4 °F /  5.2 °C 30.26 in /  1024.6 hPa WNW 13.0 mph /  20.9 km/h 24.0 mph /  38.6 km/h 62 % 0.00 in /  0 mm 768 W/m2
11:36 54.1 °F /  12.3 °C 41.4 °F /  5.2 °C 30.26 in /  1024.6 hPa WNW 14.0 mph /  22.5 km/h 24.0 mph /  38.6 km/h 62 % 0.00 in /  0 mm 766 W/m2
11:41 54.5 °F /  12.5 °C 41.7 °F /  5.4 °C 30.26 in /  1024.6 hPa WNW 14.0 mph /  22.5 km/h 22.0 mph /  35.4 km/h 62 % 0.00 in /  0 mm 754 W/m2
11:46 54.7 °F /  12.6 °C 41.1 °F /  5.1 °C 30.26 in /  1024.6 hPa WNW 12.0 mph /  19.3 km/h 21.0 mph /  33.8 km/h 60 % 0.00 in /  0 mm 789 W/m2
11:51 55.0 °F /  12.8 °C 41.8 °F /  5.4 °C 30.26 in /  1024.6 hPa NW 10.0 mph /  16.1 km/h 21.0 mph /  33.8 km/h 61 % 0.00 in /  0 mm 846 W/m2
11:56 55.6 °F /  13.1 °C 42.3 °F /  5.7 °C 30.26 in /  1024.6 hPa NW 9.0 mph /  14.5 km/h 18.0 mph /  29 km/h 61 % 0.00 in /  0 mm 1049 W/m2
12:01 55.9 °F /  13.3 °C 41.8 °F /  5.4 °C 30.26 in /  1024.6 hPa WNW 9.0 mph /  14.5 km/h 18.0 mph /  29 km/h 59 % 0.00 in /  0 mm 186 W/m2
12:06 55.4 °F /  13 °C 41.3 °F /  5.2 °C 30.27 in /  1024.9 hPa WNW 10.0 mph /  16.1 km/h 18.0 mph /  29 km/h 59 % 0.00 in /  0 mm 178 W/m2
12:11 54.9 °F /  12.7 °C 41.7 °F /  5.4 °C 30.27 in /  1024.9 hPa WNW 9.0 mph /  14.5 km/h 18.0 mph /  29 km/h 61 % 0.00 in /  0 mm 925 W/m2
12:16 55.0 °F /  12.8 °C 41.0 °F /  5 °C 30.27 in /  1024.9 hPa WNW 10.0 mph /  16.1 km/h 19.0 mph /  30.6 km/h 59 % 0.00 in /  0 mm 258 W/m2
12:21 54.7 °F /  12.6 °C 40.6 °F /  4.8 °C 30.27 in /  1024.9 hPa WNW 11.0 mph /  17.7 km/h 20.0 mph /  32.2 km/h 59 % 0.00 in /  0 mm 257 W/m2
12:26 54.3 °F /  12.4 °C 39.8 °F /  4.3 °C 30.27 in /  1024.9 hPa NW 10.0 mph /  16.1 km/h 20.0 mph /  32.2 km/h 58 % 0.00 in /  0 mm 183 W/m2
12:31 53.8 °F /  12.1 °C 39.8 °F /  4.3 °C 30.27 in /  1024.9 hPa NW 10.0 mph /  16.1 km/h 20.0 mph /  32.2 km/h 59 % 0.00 in /  0 mm 332 W/m2
12:36 54.0 °F /  12.2 °C 40.8 °F /  4.9 °C 30.27 in /  1024.9 hPa WNW 11.0 mph /  17.7 km/h 20.0 mph /  32.2 km/h 61 % 0.00 in /  0 mm 664 W/m2
12:41 54.3 °F /  12.4 °C 40.7 °F /  4.8 °C 30.27 in /  1024.9 hPa WNW 11.0 mph /  17.7 km/h 20.0 mph /  32.2 km/h 60 % 0.00 in /  0 mm 454 W/m2
12:46 54.7 °F /  12.6 °C 41.1 °F /  5.1 °C 30.27 in /  1024.9 hPa WNW 11.0 mph /  17.7 km/h 18.0 mph /  29 km/h 60 % 0.00 in /  0 mm 431 W/m2
12:51 54.9 °F /  12.7 °C 40.4 °F /  4.7 °C 30.27 in /  1024.9 hPa WNW 10.0 mph /  16.1 km/h 18.0 mph /  29 km/h 58 % 0.00 in /  0 mm 346 W/m2
12:56 54.9 °F /  12.7 °C 40.4 °F /  4.7 °C 30.27 in /  1024.9 hPa NW 8.0 mph /  12.9 km/h 15.0 mph /  24.1 km/h 58 % 0.00 in /  0 mm 274 W/m2
13:01 54.9 °F /  12.7 °C 40.4 °F /  4.7 °C 30.27 in /  1024.9 hPa WNW 8.0 mph /  12.9 km/h 18.0 mph /  29 km/h 58 % 0.00 in /  0 mm 223 W/m2
13:06 54.7 °F /  12.6 °C 40.6 °F /  4.8 °C 30.27 in /  1024.9 hPa WNW 10.0 mph /  16.1 km/h 18.0 mph /  29 km/h 59 % 0.00 in /  0 mm 243 W/m2
13:11 54.5 °F /  12.5 °C 40.0 °F /  4.4 °C 30.28 in /  1025.3 hPa WNW 9.0 mph /  14.5 km/h 18.0 mph /  29 km/h 58 % 0.00 in /  0 mm 213 W/m2
13:16 54.1 °F /  12.3 °C 40.1 °F /  4.5 °C 30.28 in /  1025.3 hPa WNW 9.0 mph /  14.5 km/h 14.0 mph /  22.5 km/h 59 % 0.00 in /  0 mm 248 W/m2
13:21 54.3 °F /  12.4 °C 40.7 °F /  4.8 °C 30.27 in /  1024.9 hPa WNW 9.0 mph /  14.5 km/h 14.0 mph /  22.5 km/h 60 % 0.00 in /  0 mm 288 W/m2
13:26 54.3 °F /  12.4 °C 40.7 °F /  4.8 °C 30.27 in /  1024.9 hPa WNW 9.0 mph /  14.5 km/h 20.0 mph /  32.2 km/h 60 % 0.00 in /  0 mm 316 W/m2
13:31 54.1 °F /  12.3 °C 40.6 °F /  4.8 °C 30.27 in /  1024.9 hPa WNW 10.0 mph /  16.1 km/h 20.0 mph /  32.2 km/h 60 % 0.00 in /  0 mm 306 W/m2
13:36 54.1 °F /  12.3 °C 40.6 °F /  4.8 °C 30.28 in /  1025.3 hPa WNW 10.0 mph /  16.1 km/h 18.0 mph /  29 km/h 60 % 0.00 in /  0 mm 322 W/m2
13:41 54.1 °F /  12.3 °C 40.1 °F /  4.5 °C 30.28 in /  1025.3 hPa WNW 10.0 mph /  16.1 km/h 16.0 mph /  25.7 km/h 59 % 0.00 in /  0 mm 425 W/m2
13:46 54.3 °F /  12.4 °C 40.3 °F /  4.6 °C 30.27 in /  1024.9 hPa WNW 9.0 mph /  14.5 km/h 16.0 mph /  25.7 km/h 59 % 0.00 in /  0 mm 566 W/m2
13:51 54.9 °F /  12.7 °C 40.4 °F /  4.7 °C 30.27 in /  1024.9 hPa West 9.0 mph /  14.5 km/h 15.0 mph /  24.1 km/h 58 % 0.00 in /  0 mm 552 W/m2
13:55 55.0 °F /  12.8 °C 40.5 °F /  4.7 °C 30.27 in /  1024.9 hPa West 9.0 mph /  14.5 km/h 15.0 mph /  24.1 km/h 58 % 0.00 in /  0 mm 457 W/m2
14:00 55.6 °F /  13.1 °C 41.0 °F /  5 °C 30.27 in /  1024.9 hPa West 9.0 mph /  14.5 km/h 14.0 mph /  22.5 km/h 58 % 0.00 in /  0 mm 1002 W/m2
14:05 56.1 °F /  13.4 °C 41.5 °F /  5.3 °C 30.28 in /  1025.3 hPa West 10.0 mph /  16.1 km/h 16.0 mph /  25.7 km/h 58 % 0.00 in /  0 mm 998 W/m2
14:10 56.3 °F /  13.5 °C 41.3 °F /  5.2 °C 30.28 in /  1025.3 hPa West 10.0 mph /  16.1 km/h 16.0 mph /  25.7 km/h 57 % 0.00 in /  0 mm 392 W/m2
14:15 56.3 °F /  13.5 °C 40.8 °F /  4.9 °C 30.28 in /  1025.3 hPa West 9.0 mph /  14.5 km/h 16.0 mph /  25.7 km/h 56 % 0.00 in /  0 mm 819 W/m2
14:20 56.5 °F /  13.6 °C 41.0 °F /  5 °C 30.28 in /  1025.3 hPa West 9.0 mph /  14.5 km/h 18.0 mph /  29 km/h 56 % 0.00 in /  0 mm 316 W/m2
14:25 55.9 °F /  13.3 °C 40.5 °F /  4.7 °C 30.28 in /  1025.3 hPa WNW 10.0 mph /  16.1 km/h 18.0 mph /  29 km/h 56 % 0.00 in /  0 mm 267 W/m2
14:30 55.8 °F /  13.2 °C 40.3 °F /  4.6 °C 30.29 in /  1025.6 hPa WNW 10.0 mph /  16.1 km/h 16.0 mph /  25.7 km/h 56 % 0.00 in /  0 mm 288 W/m2
14:35 55.6 °F /  13.1 °C 40.6 °F /  4.8 °C 30.28 in /  1025.3 hPa WNW 9.0 mph /  14.5 km/h 16.0 mph /  25.7 km/h 57 % 0.00 in /  0 mm 285 W/m2
14:40 55.4 °F /  13 °C 40.9 °F /  4.9 °C 30.27 in /  1024.9 hPa WNW 9.0 mph /  14.5 km/h 16.0 mph /  25.7 km/h 58 % 0.00 in /  0 mm 301 W/m2
14:45 55.2 °F /  12.9 °C 40.7 °F /  4.8 °C 30.27 in /  1024.9 hPa WNW 9.0 mph /  14.5 km/h 16.0 mph /  25.7 km/h 58 % 0.00 in /  0 mm 336 W/m2
14:50 55.4 °F /  13 °C 40.9 °F /  4.9 °C 30.27 in /  1024.9 hPa WNW 9.0 mph /  14.5 km/h 15.0 mph /  24.1 km/h 58 % 0.00 in /  0 mm 404 W/m2
14:55 55.8 °F /  13.2 °C 41.2 °F /  5.1 °C 30.27 in /  1024.9 hPa WNW 9.0 mph /  14.5 km/h 15.0 mph /  24.1 km/h 58 % 0.00 in /  0 mm 432 W/m2
15:00 55.9 °F /  13.3 °C 40.5 °F /  4.7 °C 30.27 in /  1024.9 hPa WNW 9.0 mph /  14.5 km/h 14.0 mph /  22.5 km/h 56 % 0.00 in /  0 mm 432 W/m2
15:05 55.9 °F /  13.3 °C 40.9 °F /  4.9 °C 30.27 in /  1024.9 hPa WNW 10.0 mph /  16.1 km/h 16.0 mph /  25.7 km/h 57 % 0.00 in /  0 mm 411 W/m2
15:10 55.6 °F /  13.1 °C 41.0 °F /  5 °C 30.28 in /  1025.3 hPa West 12.0 mph /  19.3 km/h 21.0 mph /  33.8 km/h 58 % 0.00 in /  0 mm 429 W/m2
15:15 55.9 °F /  13.3 °C 41.4 °F /  5.2 °C 30.28 in /  1025.3 hPa West 12.0 mph /  19.3 km/h 21.0 mph /  33.8 km/h 58 % 0.00 in /  0 mm 417 W/m2
15:20 55.9 °F /  13.3 °C 40.5 °F /  4.7 °C 30.28 in /  1025.3 hPa West 11.0 mph /  17.7 km/h 19.0 mph /  30.6 km/h 56 % 0.00 in /  0 mm 490 W/m2
15:25 55.9 °F /  13.3 °C 40.5 °F /  4.7 °C 30.28 in /  1025.3 hPa West 11.0 mph /  17.7 km/h 19.0 mph /  30.6 km/h 56 % 0.00 in /  0 mm 343 W/m2
15:30 55.9 °F /  13.3 °C 40.5 °F /  4.7 °C 30.28 in /  1025.3 hPa WNW 11.0 mph /  17.7 km/h 18.0 mph /  29 km/h 56 % 0.00 in /  0 mm 858 W/m2
15:35 56.3 °F /  13.5 °C 40.8 °F /  4.9 °C 30.28 in /  1025.3 hPa WNW 11.0 mph /  17.7 km/h 18.0 mph /  29 km/h 56 % 0.00 in /  0 mm 388 W/m2
15:40 56.3 °F /  13.5 °C 40.8 °F /  4.9 °C 30.28 in /  1025.3 hPa WNW 11.0 mph /  17.7 km/h 20.0 mph /  32.2 km/h 56 % 0.00 in /  0 mm 538 W/m2
15:46 56.7 °F /  13.7 °C 41.6 °F /  5.3 °C 30.28 in /  1025.3 hPa WNW 10.0 mph /  16.1 km/h 20.0 mph /  32.2 km/h 57 % 0.00 in /  0 mm 580 W/m2
15:51 56.8 °F /  13.8 °C 41.8 °F /  5.4 °C 30.28 in /  1025.3 hPa West 11.0 mph /  17.7 km/h 20.0 mph /  32.2 km/h 57 % 0.00 in /  0 mm 642 W/m2
15:56 56.7 °F /  13.7 °C 40.2 °F /  4.6 °C 30.28 in /  1025.3 hPa WNW 12.0 mph /  19.3 km/h 20.0 mph /  32.2 km/h 54 % 0.00 in /  0 mm 223 W/m2
16:01 55.8 °F /  13.2 °C 40.3 °F /  4.6 °C 30.28 in /  1025.3 hPa WNW 11.0 mph /  17.7 km/h 19.0 mph /  30.6 km/h 56 % 0.00 in /  0 mm 279 W/m2
16:05 55.6 °F /  13.1 °C 40.6 °F /  4.8 °C 30.28 in /  1025.3 hPa WNW 11.0 mph /  17.7 km/h 20.0 mph /  32.2 km/h 57 % 0.00 in /  0 mm 236 W/m2
16:11 55.8 °F /  13.2 °C 41.2 °F /  5.1 °C 30.27 in /  1024.9 hPa WNW 10.0 mph /  16.1 km/h 20.0 mph /  32.2 km/h 58 % 0.00 in /  0 mm 294 W/m2
16:16 55.8 °F /  13.2 °C 41.2 °F /  5.1 °C 30.28 in /  1025.3 hPa WNW 10.0 mph /  16.1 km/h 18.0 mph /  29 km/h 58 % 0.00 in /  0 mm 257 W/m2
16:21 55.8 °F /  13.2 °C 40.7 °F /  4.8 °C 30.27 in /  1024.9 hPa WNW 10.0 mph /  16.1 km/h 20.0 mph /  32.2 km/h 57 % 0.00 in /  0 mm 526 W/m2
16:25 55.9 °F /  13.3 °C 40.5 °F /  4.7 °C 30.27 in /  1024.9 hPa WNW 10.0 mph /  16.1 km/h 20.0 mph /  32.2 km/h 56 % 0.00 in /  0 mm 501 W/m2
16:31 55.9 °F /  13.3 °C 40.9 °F /  4.9 °C 30.28 in /  1025.3 hPa WNW 10.0 mph /  16.1 km/h 20.0 mph /  32.2 km/h 57 % 0.00 in /  0 mm 635 W/m2
16:35 56.5 °F /  13.6 °C 41.4 °F /  5.2 °C 30.27 in /  1024.9 hPa WNW 10.0 mph /  16.1 km/h 21.0 mph /  33.8 km/h 57 % 0.00 in /  0 mm 504 W/m2
16:40 56.5 °F /  13.6 °C 41.0 °F /  5 °C 30.28 in /  1025.3 hPa WNW 11.0 mph /  17.7 km/h 21.0 mph /  33.8 km/h 56 % 0.00 in /  0 mm 415 W/m2
16:45 56.1 °F /  13.4 °C 40.2 °F /  4.6 °C 30.27 in /  1024.9 hPa West 12.0 mph /  19.3 km/h 21.0 mph /  33.8 km/h 55 % 0.00 in /  0 mm 403 W/m2
16:51 55.9 °F /  13.3 °C 40.5 °F /  4.7 °C 30.27 in /  1024.9 hPa West 11.0 mph /  17.7 km/h 19.0 mph /  30.6 km/h 56 % 0.00 in /  0 mm 457 W/m2
16:55 55.9 °F /  13.3 °C 41.4 °F /  5.2 °C 30.27 in /  1024.9 hPa West 10.0 mph /  16.1 km/h 19.0 mph /  30.6 km/h 58 % 0.00 in /  0 mm 406 W/m2
17:01 55.9 °F /  13.3 °C 41.4 °F /  5.2 °C 30.27 in /  1024.9 hPa West 10.0 mph /  16.1 km/h 16.0 mph /  25.7 km/h 58 % 0.00 in /  0 mm 366 W/m2
17:06 55.8 °F /  13.2 °C 41.2 °F /  5.1 °C 30.27 in /  1024.9 hPa WNW 10.0 mph /  16.1 km/h 18.0 mph /  29 km/h 58 % 0.00 in /  0 mm 355 W/m2
17:11 55.8 °F /  13.2 °C 40.7 °F /  4.8 °C 30.27 in /  1024.9 hPa WNW 10.0 mph /  16.1 km/h 19.0 mph /  30.6 km/h 57 % 0.00 in /  0 mm 362 W/m2
17:16 55.8 °F /  13.2 °C 41.6 °F /  5.3 °C 30.27 in /  1024.9 hPa WNW 11.0 mph /  17.7 km/h 20.0 mph /  32.2 km/h 59 % 0.00 in /  0 mm 378 W/m2
17:21 55.8 °F /  13.2 °C 41.2 °F /  5.1 °C 30.27 in /  1024.9 hPa WNW 11.0 mph /  17.7 km/h 20.0 mph /  32.2 km/h 58 % 0.00 in /  0 mm 362 W/m2
17:26 55.9 °F /  13.3 °C 41.8 °F /  5.4 °C 30.28 in /  1025.3 hPa WNW 10.0 mph /  16.1 km/h 20.0 mph /  32.2 km/h 59 % 0.00 in /  0 mm 343 W/m2
17:31 55.9 °F /  13.3 °C 40.9 °F /  4.9 °C 30.28 in /  1025.3 hPa WNW 10.0 mph /  16.1 km/h 22.0 mph /  35.4 km/h 57 % 0.00 in /  0 mm 283 W/m2
17:36 55.4 °F /  13 °C 40.4 °F /  4.7 °C 30.28 in /  1025.3 hPa WNW 13.0 mph /  20.9 km/h 22.0 mph /  35.4 km/h 57 % 0.00 in /  0 mm 322 W/m2
17:41 55.4 °F /  13 °C 40.9 °F /  4.9 °C 30.28 in /  1025.3 hPa WNW 13.0 mph /  20.9 km/h 21.0 mph /  33.8 km/h 58 % 0.00 in /  0 mm 304 W/m2
17:46 55.2 °F /  12.9 °C 41.1 °F /  5.1 °C 30.28 in /  1025.3 hPa WNW 12.0 mph /  19.3 km/h 21.0 mph /  33.8 km/h 59 % 0.00 in /  0 mm 285 W/m2
17:51 55.2 °F /  12.9 °C 41.6 °F /  5.3 °C 30.28 in /  1025.3 hPa WNW 11.0 mph /  17.7 km/h 21.0 mph /  33.8 km/h 60 % 0.00 in /  0 mm 262 W/m2
17:56 55.2 °F /  12.9 °C 41.6 °F /  5.3 °C 30.28 in /  1025.3 hPa WNW 11.0 mph /  17.7 km/h 20.0 mph /  32.2 km/h 60 % 0.00 in /  0 mm 253 W/m2
18:01 55.0 °F /  12.8 °C 41.8 °F /  5.4 °C 30.28 in /  1025.3 hPa WNW 11.0 mph /  17.7 km/h 20.0 mph /  32.2 km/h 61 % 0.00 in /  0 mm 244 W/m2
18:06 54.9 °F /  12.7 °C 41.7 °F /  5.4 °C 30.28 in /  1025.3 hPa WNW 11.0 mph /  17.7 km/h 24.0 mph /  38.6 km/h 61 % 0.00 in /  0 mm 230 W/m2
18:11 54.9 °F /  12.7 °C 41.7 °F /  5.4 °C 30.28 in /  1025.3 hPa WNW 11.0 mph /  17.7 km/h 24.0 mph /  38.6 km/h 61 % 0.00 in /  0 mm 211 W/m2
18:16 54.7 °F /  12.6 °C 41.1 °F /  5.1 °C 30.28 in /  1025.3 hPa WNW 12.0 mph /  19.3 km/h 22.0 mph /  35.4 km/h 60 % 0.00 in /  0 mm 193 W/m2
18:21 54.3 °F /  12.4 °C 41.1 °F /  5.1 °C 30.28 in /  1025.3 hPa WNW 11.0 mph /  17.7 km/h 22.0 mph /  35.4 km/h 61 % 0.00 in /  0 mm 181 W/m2
18:26 54.1 °F /  12.3 °C 41.4 °F /  5.2 °C 30.29 in /  1025.6 hPa WNW 11.0 mph /  17.7 km/h 19.0 mph /  30.6 km/h 62 % 0.00 in /  0 mm 171 W/m2
18:31 53.8 °F /  12.1 °C 41.5 °F /  5.3 °C 30.29 in /  1025.6 hPa WNW 11.0 mph /  17.7 km/h 21.0 mph /  33.8 km/h 63 % 0.00 in /  0 mm 163 W/m2
18:36 53.8 °F /  12.1 °C 41.5 °F /  5.3 °C 30.29 in /  1025.6 hPa West 11.0 mph /  17.7 km/h 21.0 mph /  33.8 km/h 63 % 0.00 in /  0 mm 146 W/m2
18:41 53.4 °F /  11.9 °C 41.1 °F /  5.1 °C 30.29 in /  1025.6 hPa WNW 10.0 mph /  16.1 km/h 19.0 mph /  30.6 km/h 63 % 0.00 in /  0 mm 125 W/m2
18:46 53.2 °F /  11.8 °C 41.4 °F /  5.2 °C 30.29 in /  1025.6 hPa West 11.0 mph /  17.7 km/h 19.0 mph /  30.6 km/h 64 % 0.00 in /  0 mm 77 W/m2
18:51 52.9 °F /  11.6 °C 41.4 °F /  5.2 °C 30.29 in /  1025.6 hPa West 9.0 mph /  14.5 km/h 16.0 mph /  25.7 km/h 65 % 0.00 in /  0 mm 53 W/m2
18:56 52.5 °F /  11.4 °C 41.5 °F /  5.3 °C 30.29 in /  1025.6 hPa West 7.0 mph /  11.3 km/h 16.0 mph /  25.7 km/h 66 % 0.00 in /  0 mm 39 W/m2
19:01 52.2 °F /  11.2 °C 41.1 °F /  5.1 °C 30.29 in /  1025.6 hPa WNW 7.0 mph /  11.3 km/h 14.0 mph /  22.5 km/h 66 % 0.00 in /  0 mm 42 W/m2
19:06 51.8 °F /  11 °C 40.8 °F /  4.9 °C 30.29 in /  1025.6 hPa WNW 8.0 mph /  12.9 km/h 20.0 mph /  32.2 km/h 66 % 0.00 in /  0 mm 42 W/m2
19:11 51.4 °F /  10.8 °C 40.5 °F /  4.7 °C 30.29 in /  1025.6 hPa WNW 10.0 mph /  16.1 km/h 20.0 mph /  32.2 km/h 66 % 0.00 in /  0 mm 42 W/m2
19:16 51.3 °F /  10.7 °C 40.7 °F /  4.8 °C 30.29 in /  1025.6 hPa WNW 11.0 mph /  17.7 km/h 21.0 mph /  33.8 km/h 67 % 0.00 in /  0 mm 39 W/m2
19:21 51.1 °F /  10.6 °C 40.9 °F /  4.9 °C 30.29 in /  1025.6 hPa WNW 12.0 mph /  19.3 km/h 21.0 mph /  33.8 km/h 68 % 0.00 in /  0 mm 30 W/m2
19:26 50.9 °F /  10.5 °C 40.7 °F /  4.8 °C 30.29 in /  1025.6 hPa WNW 11.0 mph /  17.7 km/h 20.0 mph /  32.2 km/h 68 % 0.00 in /  0 mm 25 W/m2
19:31 50.7 °F /  10.4 °C 40.9 °F /  4.9 °C 30.29 in /  1025.6 hPa WNW 9.0 mph /  14.5 km/h 16.0 mph /  25.7 km/h 69 % 0.00 in /  0 mm 19 W/m2
19:36 50.5 °F /  10.3 °C 40.7 °F /  4.8 °C 30.29 in /  1025.6 hPa WNW 9.0 mph /  14.5 km/h 15.0 mph /  24.1 km/h 69 % 0.00 in /  0 mm 18 W/m2
19:41 50.4 °F /  10.2 °C 40.9 °F /  4.9 °C 30.29 in /  1025.6 hPa WNW 10.0 mph /  16.1 km/h 15.0 mph /  24.1 km/h 70 % 0.00 in /  0 mm 14 W/m2
19:46 50.2 °F /  10.1 °C 41.1 °F /  5.1 °C 30.29 in /  1025.6 hPa West 9.0 mph /  14.5 km/h 15.0 mph /  24.1 km/h 71 % 0.00 in /  0 mm 9 W/m2
19:51 50.0 °F /  10 °C 40.6 °F /  4.8 °C 30.29 in /  1025.6 hPa WNW 10.0 mph /  16.1 km/h 19.0 mph /  30.6 km/h 70 % 0.00 in /  0 mm 5 W/m2
19:56 49.8 °F /  9.9 °C 40.4 °F /  4.7 °C 30.30 in /  1026 hPa WNW 10.0 mph /  16.1 km/h 19.0 mph /  30.6 km/h 70 % 0.00 in /  0 mm 0 W/m2
20:01 49.6 °F /  9.8 °C 40.6 °F /  4.8 °C 30.30 in /  1026 hPa WNW 9.0 mph /  14.5 km/h 18.0 mph /  29 km/h 71 % 0.00 in /  0 mm 0 W/m2
20:06 49.5 °F /  9.7 °C 40.8 °F /  4.9 °C 30.30 in /  1026 hPa WNW 10.0 mph /  16.1 km/h 16.0 mph /  25.7 km/h 72 % 0.00 in /  0 mm 0 W/m2
20:11 49.3 °F /  9.6 °C 40.6 °F /  4.8 °C 30.30 in /  1026 hPa WNW 10.0 mph /  16.1 km/h 15.0 mph /  24.1 km/h 72 % 0.00 in /  0 mm 0 W/m2
20:16 49.1 °F /  9.5 °C 40.8 °F /  4.9 °C 30.30 in /  1026 hPa WNW 9.0 mph /  14.5 km/h 15.0 mph /  24.1 km/h 73 % 0.00 in /  0 mm 0 W/m2
20:21 48.9 °F /  9.4 °C 40.6 °F /  4.8 °C 30.30 in /  1026 hPa WNW 8.0 mph /  12.9 km/h 14.0 mph /  22.5 km/h 73 % 0.00 in /  0 mm 0 W/m2
20:26 48.7 °F /  9.3 °C 40.8 °F /  4.9 °C 30.31 in /  1026.3 hPa WNW 9.0 mph /  14.5 km/h 16.0 mph /  25.7 km/h 74 % 0.00 in /  0 mm 0 W/m2
20:32 48.6 °F /  9.2 °C 40.6 °F /  4.8 °C 30.31 in /  1026.3 hPa WNW 10.0 mph /  16.1 km/h 19.0 mph /  30.6 km/h 74 % 0.00 in /  0 mm 0 W/m2
20:37 48.4 °F /  9.1 °C 40.5 °F /  4.7 °C 30.31 in /  1026.3 hPa West 11.0 mph /  17.7 km/h 19.0 mph /  30.6 km/h 74 % 0.00 in /  0 mm 0 W/m2
20:42 48.4 °F /  9.1 °C 40.5 °F /  4.7 °C 30.31 in /  1026.3 hPa West 9.0 mph /  14.5 km/h 18.0 mph /  29 km/h 74 % 0.00 in /  0 mm 0 W/m2
20:47 48.0 °F /  8.9 °C 40.5 °F /  4.7 °C 30.31 in /  1026.3 hPa WNW 9.0 mph /  14.5 km/h 19.0 mph /  30.6 km/h 75 % 0.00 in /  0 mm 0 W/m2
20:52 48.0 °F /  8.9 °C 40.5 °F /  4.7 °C 30.31 in /  1026.3 hPa WNW 10.0 mph /  16.1 km/h 19.0 mph /  30.6 km/h 75 % 0.00 in /  0 mm 0 W/m2
20:57 47.8 °F /  8.8 °C 40.0 °F /  4.4 °C 30.31 in /  1026.3 hPa WNW 9.0 mph /  14.5 km/h 18.0 mph /  29 km/h 74 % 0.00 in /  0 mm 0 W/m2
21:02 47.8 °F /  8.8 °C 40.0 °F /  4.4 °C 30.31 in /  1026.3 hPa WNW 10.0 mph /  16.1 km/h 16.0 mph /  25.7 km/h 74 % 0.00 in /  0 mm 0 W/m2
21:07 47.8 °F /  8.8 °C 40.0 °F /  4.4 °C 30.31 in /  1026.3 hPa WNW 10.0 mph /  16.1 km/h 16.0 mph /  25.7 km/h 74 % 0.00 in /  0 mm 0 W/m2
21:12 47.8 °F /  8.8 °C 39.6 °F /  4.2 °C 30.31 in /  1026.3 hPa WNW 10.0 mph /  16.1 km/h 16.0 mph /  25.7 km/h 73 % 0.00 in /  0 mm 0 W/m2
21:17 47.7 °F /  8.7 °C 39.4 °F /  4.1 °C 30.31 in /  1026.3 hPa WNW 10.0 mph /  16.1 km/h 16.0 mph /  25.7 km/h 73 % 0.00 in /  0 mm 0 W/m2
21:22 47.7 °F /  8.7 °C 39.1 °F /  3.9 °C 30.31 in /  1026.3 hPa WNW 9.0 mph /  14.5 km/h 14.0 mph /  22.5 km/h 72 % 0.00 in /  0 mm 0 W/m2
21:27 47.7 °F /  8.7 °C 39.1 °F /  3.9 °C 30.31 in /  1026.3 hPa WNW 9.0 mph /  14.5 km/h 15.0 mph /  24.1 km/h 72 % 0.00 in /  0 mm 0 W/m2
21:32 47.7 °F /  8.7 °C 38.7 °F /  3.7 °C 30.32 in /  1026.6 hPa WNW 9.0 mph /  14.5 km/h 15.0 mph /  24.1 km/h 71 % 0.00 in /  0 mm 0 W/m2
21:37 47.7 °F /  8.7 °C 38.7 °F /  3.7 °C 30.32 in /  1026.6 hPa WNW 8.0 mph /  12.9 km/h 18.0 mph /  29 km/h 71 % 0.00 in /  0 mm 0 W/m2
21:42 47.7 °F /  8.7 °C 38.4 °F /  3.6 °C 30.32 in /  1026.6 hPa WNW 9.0 mph /  14.5 km/h 18.0 mph /  29 km/h 70 % 0.00 in /  0 mm 0 W/m2
21:47 47.5 °F /  8.6 °C 38.2 °F /  3.4 °C 30.32 in /  1026.6 hPa WNW 9.0 mph /  14.5 km/h 14.0 mph /  22.5 km/h 70 % 0.00 in /  0 mm 0 W/m2
21:52 47.5 °F /  8.6 °C 38.2 °F /  3.4 °C 30.33 in /  1027 hPa WNW 9.0 mph /  14.5 km/h 15.0 mph /  24.1 km/h 70 % 0.00 in /  0 mm 0 W/m2
21:57 47.5 °F /  8.6 °C 38.2 °F /  3.4 °C 30.33 in /  1027 hPa WNW 9.0 mph /  14.5 km/h 15.0 mph /  24.1 km/h 70 % 0.00 in /  0 mm 0 W/m2
22:02 47.5 °F /  8.6 °C 38.5 °F /  3.6 °C 30.33 in /  1027 hPa WNW 9.0 mph /  14.5 km/h 15.0 mph /  24.1 km/h 71 % 0.00 in /  0 mm 0 W/m2
22:07 47.5 °F /  8.6 °C 38.5 °F /  3.6 °C 30.33 in /  1027 hPa WNW 9.0 mph /  14.5 km/h 15.0 mph /  24.1 km/h 71 % 0.00 in /  0 mm 0 W/m2
22:12 47.3 °F /  8.5 °C 38.7 °F /  3.7 °C 30.33 in /  1027 hPa WNW 8.0 mph /  12.9 km/h 13.0 mph /  20.9 km/h 72 % 0.00 in /  0 mm 0 W/m2
22:17 47.1 °F /  8.4 °C 38.9 °F /  3.8 °C 30.33 in /  1027 hPa WNW 8.0 mph /  12.9 km/h 13.0 mph /  20.9 km/h 73 % 0.00 in /  0 mm 0 W/m2
22:22 46.9 °F /  8.3 °C 38.7 °F /  3.7 °C 30.33 in /  1027 hPa WNW 8.0 mph /  12.9 km/h 13.0 mph /  20.9 km/h 73 % 0.00 in /  0 mm 0 W/m2
22:27 46.9 °F /  8.3 °C 39.1 °F /  3.9 °C 30.33 in /  1027 hPa WNW 8.0 mph /  12.9 km/h 13.0 mph /  20.9 km/h 74 % 0.00 in /  0 mm 0 W/m2
22:32 46.9 °F /  8.3 °C 39.1 °F /  3.9 °C 30.33 in /  1027 hPa WNW 7.0 mph /  11.3 km/h 13.0 mph /  20.9 km/h 74 % 0.00 in /  0 mm 0 W/m2
22:38 46.9 °F /  8.3 °C 39.1 °F /  3.9 °C 30.33 in /  1027 hPa WNW 8.0 mph /  12.9 km/h 13.0 mph /  20.9 km/h 74 % 0.00 in /  0 mm 0 W/m2
22:43 46.8 °F /  8.2 °C 38.9 °F /  3.8 °C 30.33 in /  1027 hPa WNW 8.0 mph /  12.9 km/h 13.0 mph /  20.9 km/h 74 % 0.00 in /  0 mm 0 W/m2
22:48 46.8 °F /  8.2 °C 39.3 °F /  4.1 °C 30.33 in /  1027 hPa WNW 8.0 mph /  12.9 km/h 13.0 mph /  20.9 km/h 75 % 0.00 in /  0 mm 0 W/m2
22:53 46.8 °F /  8.2 °C 39.3 °F /  4.1 °C 30.33 in /  1027 hPa WNW 8.0 mph /  12.9 km/h 13.0 mph /  20.9 km/h 75 % 0.00 in /  0 mm 0 W/m2
22:58 46.8 °F /  8.2 °C 39.3 °F /  4.1 °C 30.33 in /  1027 hPa WNW 8.0 mph /  12.9 km/h 14.0 mph /  22.5 km/h 75 % 0.00 in /  0 mm 0 W/m2
23:03 46.6 °F /  8.1 °C 39.1 °F /  3.9 °C 30.33 in /  1027 hPa WNW 8.0 mph /  12.9 km/h 14.0 mph /  22.5 km/h 75 % 0.00 in /  0 mm 0 W/m2
23:08 46.6 °F /  8.1 °C 39.1 °F /  3.9 °C 30.33 in /  1027 hPa WNW 8.0 mph /  12.9 km/h 13.0 mph /  20.9 km/h 75 % 0.00 in /  0 mm 0 W/m2
23:13 46.4 °F /  8 °C 38.9 °F /  3.8 °C 30.33 in /  1027 hPa WNW 8.0 mph /  12.9 km/h 13.0 mph /  20.9 km/h 75 % 0.00 in /  0 mm 0 W/m2
23:18 46.2 °F /  7.9 °C 38.7 °F /  3.7 °C 30.33 in /  1027 hPa WNW 8.0 mph /  12.9 km/h 13.0 mph /  20.9 km/h 75 % 0.00 in /  0 mm 0 W/m2
23:23 46.2 °F /  7.9 °C 38.7 °F /  3.7 °C 30.33 in /  1027 hPa WNW 8.0 mph /  12.9 km/h 15.0 mph /  24.1 km/h 75 % 0.00 in /  0 mm 0 W/m2
23:24 46.0 °F /  7.8 °C 38.6 °F /  3.7 °C 30.33 in /  1027 hPa WNW 8.0 mph /  12.9 km/h 15.0 mph /  24.1 km/h 75 % 0.00 in /  0 mm 0 W/m2
23:29 46.0 °F /  7.8 °C 38.6 °F /  3.7 °C 30.33 in /  1027 hPa WNW 8.0 mph /  12.9 km/h 15.0 mph /  24.1 km/h 75 % 0.00 in /  0 mm 0 W/m2
23:34 45.9 °F /  7.7 °C 38.7 °F /  3.7 °C 30.33 in /  1027 hPa WNW 7.0 mph /  11.3 km/h 14.0 mph /  22.5 km/h 76 % 0.00 in /  0 mm 0 W/m2
23:39 45.7 °F /  7.6 °C 38.2 °F /  3.4 °C 30.33 in /  1027 hPa WNW 7.0 mph /  11.3 km/h 12.0 mph /  19.3 km/h 75 % 0.00 in /  0 mm 0 W/m2
23:44 45.5 °F /  7.5 °C 38.4 °F /  3.6 °C 30.33 in /  1027 hPa WNW 7.0 mph /  11.3 km/h 12.0 mph /  19.3 km/h 76 % 0.00 in /  0 mm 0 W/m2
23:49 45.3 °F /  7.4 °C 38.2 °F /  3.4 °C 30.32 in /  1026.6 hPa WNW 7.0 mph /  11.3 km/h 12.0 mph /  19.3 km/h 76 % 0.00 in /  0 mm 0 W/m2
23:54 45.1 °F /  7.3 °C 38.4 °F /  3.6 °C 30.32 in /  1026.6 hPa WNW 8.0 mph /  12.9 km/h 12.0 mph /  19.3 km/h 77 % 0.00 in /  0 mm 0 W/m2
23:59 45.0 °F /  7.2 °C 38.2 °F /  3.4 °C 30.32 in /  1026.6 hPa WNW 8.0 mph /  12.9 km/h 15.0 mph /  24.1 km/h 77 % 0.00 in /  0 mm 0 W/m2
Delerius-Weather
Compliments of Weather Underground - 2.25 mb

Data updates at regular intervals.